Rechercher aéroport 
image banner adimage banner adimage banner ad
image banner ad

CN47 - Pacoima Dam

Situé à Los Angeles, United States

ICAO - CN47, IATA -

Données fournies par Airmate  

Information générale

Coordonnées: N34°20'2" W118°23'50"
Élévation : 2039 feet MSL.
Variation magnétique : 13° East
Voir autres Aéroports à California

Données opérationnelles

Special qualification required
Heure actuelle UTC:
Heure actuelle locale:
Météo à : KWHP - Whiteman ( 8 km )
METAR: KWHP 212250Z 15007KT 10SM SKC 37/04 A3007
Voir NOTAMs / SUP AIP / TFR affectant cet aéroport [VIEW]
Fréquences de communication: [VIEW]

Pistes:

Coordonnées de l'aéroport

Adresse: Los Angeles United States

Vue satellite de CN47